Monday, July 23, 2018, 1:56 AM EDT
Back to Local

KSEG, Selinsgrove Penn Valley Airport

Location: Selinsgrove, PA, United States Lat: 40.817
Local Time: 1:56 AM EDT ( 5:56 GMT) Lon: -76.867
Time Zone: US/Eastern Elev: 449 ft

Show me the last for .
Show Decoded

2018-07-23 01:24 METAR KSEG 230524Z AUTO 00000KT 6SM -RA BR BKN021 BKN055 OVC100 21/20 A2995 RMK
                 AO2 LTG DSNT W AND NW RAB0457 P0002 T02110200 =
2018-07-23 00:53 METAR KSEG 230453Z AUTO 29003KT 10SM VCTS FEW024 BKN029 OVC036 21/20 A2994 RMK
                 AO2 LTG DSNT S AND SW SLP137 T02060200 402610161 =
2018-07-22 23:53 METAR KSEG 230353Z AUTO 00000KT 10SM SCT015 21/19 A2995 RMK AO2 SLP138 T02060194
                 =
2018-07-22 22:53 METAR KSEG 230253Z AUTO 00000KT 10SM CLR 21/20 A2992 RMK AO2 RAE26 SLP131 P0002
                 60003 T02110200 51015 =
2018-07-22 22:06 METAR KSEG 230206Z AUTO 16007KT 10SM -RA FEW046 SCT065 BKN120 22/20 A2994 RMK
                 AO2 LTG DSNT N AND NE P0000 T02220200 =
2018-07-22 21:53 METAR KSEG 230153Z AUTO 13007KT 10SM VCTS -RA SCT035 BKN050 OVC085 23/20 A2992
                 RMK AO2 LTG DSNT E RAB38 SLP131 P0001 T02280200 =
2018-07-22 21:25 METAR KSEG 230125Z AUTO 13003KT 10SM VCTS FEW035 SCT043 SCT070 23/19 A2992 RMK
                 AO2 LTG DSNT SE AND S T02330194 =
2018-07-22 20:53 METAR KSEG 230053Z AUTO 15004KT 10SM CLR 23/19 A2991 RMK AO2 LTG DSNT S SLP126
                 T02330194 =
2018-07-22 19:53 METAR KSEG 222353Z AUTO 13008KT 10SM FEW055 24/19 A2988 RMK AO2 SLP116 T02390194
                 10261 20239 53003 =
2018-07-22 18:53 METAR KSEG 222253Z AUTO 11008G17KT 10SM FEW055 25/20 A2988 RMK AO2 SLP114
                 T02500200 =
2018-07-22 17:53 METAR KSEG 222153Z AUTO 08005KT 10SM SCT030 SCT038 BKN065 25/20 A2987 RMK AO2
                 SLP110 T02500200 =
2018-07-22 16:53 METAR KSEG 222053Z AUTO VRB03KT 10SM FEW110 24/19 A2987 RMK AO2 SLP112 T02440194
                 55003 =
2018-07-22 15:53 METAR KSEG 221953Z AUTO 14009KT 10SM FEW060 SCT090 BKN100 26/20 A2987 RMK AO2
                 SLP112 T02560200 =
2018-07-22 13:53 METAR KSEG 221753Z AUTO VRB05KT 10SM BKN022 OVC032 24/19 A2988 RMK AO2 SLP115
                 T02390189 10239 20178 51010 =
2018-07-22 12:53 METAR KSEG 221653Z AUTO 16005KT 10SM OVC020 22/18 A2988 RMK AO2 SLP116 T02170178
                 =
2018-07-22 12:05 METAR KSEG 221605Z AUTO 16008KT 10SM OVC015 21/18 A2988 RMK AO2 T02060178 =
2018-07-22 11:53 METAR KSEG 221553Z AUTO 19005KT 10SM OVC014 21/18 A2988 RMK AO2 SLP115 T02060178
                 =
2018-07-22 11:07 METAR KSEG 221507Z AUTO VRB05KT 10SM OVC014 21/17 A2986 RMK AO2 T02060172 =
2018-07-22 10:53 METAR KSEG 221453Z AUTO 20005KT 10SM OVC017 20/17 A2985 RMK AO2 SLP106 T02000172
                 53016 =
2018-07-22 10:28 METAR KSEG 221428Z AUTO VRB06KT 10SM SCT010 OVC015 19/18 A2984 RMK AO2 T01940178
                 =
2018-07-22 10:21 METAR KSEG 221421Z AUTO 18007KT 9SM BKN011 OVC015 19/17 A2984 RMK AO2 CIG
                 008V013 T01940172 =
2018-07-22 09:53 METAR KSEG 221353Z AUTO VRB03KT 10SM BKN009 OVC013 19/18 A2982 RMK AO2 CIG
                 006V011 SLP096 T01890178 =
2018-07-22 08:53 METAR KSEG 221253Z AUTO 00000KT 4SM BR OVC007 18/17 A2980 RMK AO2 CIG 005V013
                 SLP089 T01830172 =
2018-07-22 08:48 METAR KSEG 221248Z AUTO 21003KT 3SM BR BKN009 OVC016 18/17 A2980 RMK AO2 CIG
                 006V013 =
2018-07-22 08:09 METAR KSEG 221209Z AUTO 18004KT 10SM OVC010 18/17 A2977 RMK AO2 T01830172 =
2018-07-22 07:53 METAR KSEG 221153Z AUTO 17006KT 10SM BKN009 OVC017 18/17 A2977 RMK AO2 SLP078
                 60092 70283 T01780167 10178 20167 53045 =
2018-07-22 07:22 METAR KSEG 221122Z AUTO 00000KT 10SM BKN007 OVC017 18/17 A2974 RMK AO2 T01780167
                 =
2018-07-22 06:53 METAR KSEG 221053Z AUTO 20004KT 7SM SCT007 OVC018 17/17 A2972 RMK AO2 RAB00E11
                 SLP062 P0000 T01720167 =
2018-07-22 06:44 METAR KSEG 221044Z AUTO 20003KT 9SM SCT007 OVC015 17/17 A2971 RMK AO2 RAB00E11
                 P0000 T01720167 =
2018-07-22 06:18 METAR KSEG 221018Z AUTO VRB04KT 9SM OVC010 17/16 A2970 RMK AO2 RAB00E11 P0000
                 T01720161 =
2018-07-22 06:05 METAR KSEG 221005Z AUTO 21003KT 8SM -RA BKN008 OVC032 17/16 A2969 RMK AO2 RAB00
                 PRESRR P0000 T01670161 =
2018-07-22 05:53 METAR KSEG 220953Z AUTO 21004KT 9SM FEW008 SCT020 OVC031 17/16 A2967 RMK AO2
                 RAE45 PRESRR SLP045 P0002 T01670161 =
2018-07-22 04:53 METAR KSEG 220853Z AUTO VRB05KT 4SM -RA BR FEW019 OVC024 17/16 A2963 RMK AO2
                 SLP033 P0028 60090 T01670156 55005 =
2018-07-22 04:49 METAR KSEG 220849Z AUTO VRB06KT 4SM -RA BR FEW019 OVC024 17/16 A2963 RMK AO2
                 P0027 =
2018-07-22 04:41 METAR KSEG 220841Z AUTO VRB05KT 2 1/2SM RA BR FEW018 OVC024 17/16 A2963 RMK AO2
                 P0026 T01670156 =
2018-07-22 04:31 METAR KSEG 220831Z AUTO 29007KT 1 1/2SM RA BR FEW009 FEW014 OVC022 17/16 A2962
                 RMK AO2 VIS 3/4V4 P0023 T01670156 =
2018-07-22 04:19 METAR KSEG 220819Z AUTO 29008KT 2 1/2SM -RA BR SCT009 OVC016 17/16 A2962 RMK AO2
                 P0013 T01670161 =
2018-07-22 03:53 METAR KSEG 220753Z AUTO 30005KT 1 1/2SM +RA BR OVC007 17/16 A2962 RMK AO2 SLP029
                 P0021 T01670161 =
2018-07-22 03:14 METAR KSEG 220714Z AUTO 01007KT 2 1/2SM RA BR BKN009 OVC015 17/16 A2962 RMK AO2
                 P0005 T01670156 =
2018-07-22 03:08 METAR KSEG 220708Z AUTO 02008KT 2 1/2SM RA BR BKN013 OVC018 17/16 A2962 RMK AO2
                 P0004 T01670156 =
2018-07-22 03:04 METAR KSEG 220704Z AUTO 01007KT 4SM RA BR OVC015 17/16 A2963 RMK AO2 PRESFR
                 P0003 T01670156 =
2018-07-22 02:53 METAR KSEG 220653Z AUTO 03009KT 3SM RA BR FEW007 OVC012 17/16 A2965 RMK AO2
                 SLP037 P0041 T01670156 =
2018-07-22 02:47 METAR KSEG 220647Z AUTO 03007KT 3SM -RA BR SCT009 BKN014 OVC020 17/16 A2965 RMK
                 AO2 P0040 =
2018-07-22 02:32 METAR KSEG 220632Z AUTO 03007KT 2 1/2SM RA BR SCT007 BKN015 OVC022 17/16 A2966
                 RMK AO2 P0031 T01670156 =
2018-07-22 02:28 METAR KSEG 220628Z AUTO VRB05KT 3SM RA BR SCT007 BKN011 OVC022 16/16 A2967 RMK
                 AO2 P0028 T01610156 =
2018-07-22 02:25 METAR KSEG 220625Z AUTO 36005KT 2SM RA BR SCT007 SCT012 OVC022 16/16 A2967 RMK
                 AO2 P0027 T01610156 =
2018-07-22 02:14 METAR KSEG 220614Z AUTO 03008KT 1 3/4SM +RA BR SCT009 BKN013 OVC021 16/15 A2969
                 RMK AO2 P0018 T01610150 =
2018-07-22 02:10 METAR KSEG 220610Z AUTO 03007KT 2SM +RA BR BKN011 BKN019 OVC026 16/15 A2970 RMK
                 AO2 P0011 T01610150 =

Support USWX by starting your Amazon purchase here.